sensor_id;sensor_type;location;lat;lon;timestamp;temperature;humidity
36002;DHT22;22070;50.922;5.430;2022-07-24T00:01:40;17.90;99.90
36002;DHT22;22070;50.922;5.430;2022-07-24T00:04:06;17.90;99.90
36002;DHT22;22070;50.922;5.430;2022-07-24T00:06:32;17.80;99.90
36002;DHT22;22070;50.922;5.430;2022-07-24T00:08:58;17.80;99.90
36002;DHT22;22070;50.922;5.430;2022-07-24T00:11:23;17.80;99.90
36002;DHT22;22070;50.922;5.430;2022-07-24T00:13:49;17.80;99.90
36002;DHT22;22070;50.922;5.430;2022-07-24T00:16:15;17.90;99.90
36002;DHT22;22070;50.922;5.430;2022-07-24T00:18:41;17.80;99.90
36002;DHT22;22070;50.922;5.430;2022-07-24T00:21:07;17.90;99.90
36002;DHT22;22070;50.922;5.430;2022-07-24T00:23:32;17.80;99.90
36002;DHT22;22070;50.922;5.430;2022-07-24T00:25:58;17.80;99.90
36002;DHT22;22070;50.922;5.430;2022-07-24T00:28:25;17.80;99.90
36002;DHT22;22070;50.922;5.430;2022-07-24T00:30:50;17.70;99.90
36002;DHT22;22070;50.922;5.430;2022-07-24T00:33:16;17.60;99.90
36002;DHT22;22070;50.922;5.430;2022-07-24T00:35:42;17.50;99.90
36002;DHT22;22070;50.922;5.430;2022-07-24T00:38:09;17.60;99.90
36002;DHT22;22070;50.922;5.430;2022-07-24T00:40:35;17.60;99.90
36002;DHT22;22070;50.922;5.430;2022-07-24T00:43:02;17.60;99.90
36002;DHT22;22070;50.922;5.430;2022-07-24T00:45:28;17.60;99.90
36002;DHT22;22070;50.922;5.430;2022-07-24T00:47:54;17.60;99.90
36002;DHT22;22070;50.922;5.430;2022-07-24T00:50:20;17.60;99.90
36002;DHT22;22070;50.922;5.430;2022-07-24T00:52:46;17.50;99.90
36002;DHT22;22070;50.922;5.430;2022-07-24T00:55:11;17.50;99.90
36002;DHT22;22070;50.922;5.430;2022-07-24T00:57:37;17.60;99.90
36002;DHT22;22070;50.922;5.430;2022-07-24T01:00:07;17.60;99.90
36002;DHT22;22070;50.922;5.430;2022-07-24T01:02:34;17.40;99.90
36002;DHT22;22070;50.922;5.430;2022-07-24T01:05:00;17.20;99.90
36002;DHT22;22070;50.922;5.430;2022-07-24T01:07:26;17.20;99.90
36002;DHT22;22070;50.922;5.430;2022-07-24T01:09:51;17.20;99.90
36002;DHT22;22070;50.922;5.430;2022-07-24T01:12:18;17.30;99.90
36002;DHT22;22070;50.922;5.430;2022-07-24T01:14:44;17.30;99.90
36002;DHT22;22070;50.922;5.430;2022-07-24T01:17:11;17.30;99.90
36002;DHT22;22070;50.922;5.430;2022-07-24T01:19:36;17.40;99.90
36002;DHT22;22070;50.922;5.430;2022-07-24T01:22:03;17.30;99.90
36002;DHT22;22070;50.922;5.430;2022-07-24T01:24:29;17.20;99.90
36002;DHT22;22070;50.922;5.430;2022-07-24T01:26:54;17.20;99.90
36002;DHT22;22070;50.922;5.430;2022-07-24T01:29:20;17.10;99.90
36002;DHT22;22070;50.922;5.430;2022-07-24T01:31:46;17.10;99.90
36002;DHT22;22070;50.922;5.430;2022-07-24T01:34:12;17.20;99.90
36002;DHT22;22070;50.922;5.430;2022-07-24T01:36:38;17.10;99.90
36002;DHT22;22070;50.922;5.430;2022-07-24T01:39:04;17.10;99.90
36002;DHT22;22070;50.922;5.430;2022-07-24T01:41:30;17.10;99.90
36002;DHT22;22070;50.922;5.430;2022-07-24T01:43:56;17.00;99.90
36002;DHT22;22070;50.922;5.430;2022-07-24T01:46:21;17.10;99.90
36002;DHT22;22070;50.922;5.430;2022-07-24T01:48:47;17.00;99.90
36002;DHT22;22070;50.922;5.430;2022-07-24T01:51:12;16.90;99.90
36002;DHT22;22070;50.922;5.430;2022-07-24T01:53:38;16.90;99.90
36002;DHT22;22070;50.922;5.430;2022-07-24T01:56:04;16.80;99.90
36002;DHT22;22070;50.922;5.430;2022-07-24T01:58:30;16.70;99.90
36002;DHT22;22070;50.922;5.430;2022-07-24T02:00:55;16.70;99.90
36002;DHT22;22070;50.922;5.430;2022-07-24T02:03:21;16.60;99.90
36002;DHT22;22070;50.922;5.430;2022-07-24T02:05:47;16.60;99.90
36002;DHT22;22070;50.922;5.430;2022-07-24T02:08:13;16.50;99.90
36002;DHT22;22070;50.922;5.430;2022-07-24T02:10:39;16.30;99.90
36002;DHT22;22070;50.922;5.430;2022-07-24T02:13:05;16.40;99.90
36002;DHT22;22070;50.922;5.430;2022-07-24T02:15:31;16.50;99.90
36002;DHT22;22070;50.922;5.430;2022-07-24T02:17:58;16.50;99.90
36002;DHT22;22070;50.922;5.430;2022-07-24T02:20:24;16.50;99.90
36002;DHT22;22070;50.922;5.430;2022-07-24T02:22:51;16.50;99.90
36002;DHT22;22070;50.922;5.430;2022-07-24T02:25:17;16.60;99.90
36002;DHT22;22070;50.922;5.430;2022-07-24T02:27:42;16.60;99.90
36002;DHT22;22070;50.922;5.430;2022-07-24T02:30:10;16.50;99.90
36002;DHT22;22070;50.922;5.430;2022-07-24T02:32:36;16.40;99.90
36002;DHT22;22070;50.922;5.430;2022-07-24T02:35:02;16.40;99.90
36002;DHT22;22070;50.922;5.430;2022-07-24T02:37:28;16.40;99.90
36002;DHT22;22070;50.922;5.430;2022-07-24T02:39:54;16.40;99.90
36002;DHT22;22070;50.922;5.430;2022-07-24T02:42:20;16.30;99.90
36002;DHT22;22070;50.922;5.430;2022-07-24T02:44:45;16.30;99.90
36002;DHT22;22070;50.922;5.430;2022-07-24T02:47:11;16.30;99.90
36002;DHT22;22070;50.922;5.430;2022-07-24T02:49:37;16.30;99.90
36002;DHT22;22070;50.922;5.430;2022-07-24T02:52:03;16.30;99.90
36002;DHT22;22070;50.922;5.430;2022-07-24T02:54:29;16.20;99.90
36002;DHT22;22070;50.922;5.430;2022-07-24T02:56:56;16.30;99.90
36002;DHT22;22070;50.922;5.430;2022-07-24T02:59:22;16.30;99.90
36002;DHT22;22070;50.922;5.430;2022-07-24T03:01:47;16.40;99.90
36002;DHT22;22070;50.922;5.430;2022-07-24T03:04:13;16.30;99.90
36002;DHT22;22070;50.922;5.430;2022-07-24T03:06:39;16.30;99.90
36002;DHT22;22070;50.922;5.430;2022-07-24T03:09:04;16.30;99.90
36002;DHT22;22070;50.922;5.430;2022-07-24T03:11:30;16.30;99.90
36002;DHT22;22070;50.922;5.430;2022-07-24T03:13:56;16.30;99.90
36002;DHT22;22070;50.922;5.430;2022-07-24T03:16:22;16.30;99.90
36002;DHT22;22070;50.922;5.430;2022-07-24T03:18:47;16.20;99.90
36002;DHT22;22070;50.922;5.430;2022-07-24T03:21:16;16.20;99.90
36002;DHT22;22070;50.922;5.430;2022-07-24T03:23:43;16.30;99.90
36002;DHT22;22070;50.922;5.430;2022-07-24T03:26:08;16.30;99.90
36002;DHT22;22070;50.922;5.430;2022-07-24T03:28:34;16.40;99.90
36002;DHT22;22070;50.922;5.430;2022-07-24T03:31:00;16.30;99.90
36002;DHT22;22070;50.922;5.430;2022-07-24T03:33:27;16.10;99.90
36002;DHT22;22070;50.922;5.430;2022-07-24T03:35:53;16.20;99.90
36002;DHT22;22070;50.922;5.430;2022-07-24T03:38:19;16.20;99.90
36002;DHT22;22070;50.922;5.430;2022-07-24T03:40:44;16.30;99.90
36002;DHT22;22070;50.922;5.430;2022-07-24T03:43:10;16.20;99.90
36002;DHT22;22070;50.922;5.430;2022-07-24T03:45:36;16.20;99.90
36002;DHT22;22070;50.922;5.430;2022-07-24T03:48:01;16.30;99.90
36002;DHT22;22070;50.922;5.430;2022-07-24T03:50:27;16.30;99.90
36002;DHT22;22070;50.922;5.430;2022-07-24T03:52:53;16.20;99.90
36002;DHT22;22070;50.922;5.430;2022-07-24T03:55:19;16.20;99.90
36002;DHT22;22070;50.922;5.430;2022-07-24T03:57:44;16.20;99.90
36002;DHT22;22070;50.922;5.430;2022-07-24T04:00:11;16.20;99.90
36002;DHT22;22070;50.922;5.430;2022-07-24T04:02:36;16.20;99.90
36002;DHT22;22070;50.922;5.430;2022-07-24T04:05:03;16.20;99.90
36002;DHT22;22070;50.922;5.430;2022-07-24T04:07:28;16.30;99.90
36002;DHT22;22070;50.922;5.430;2022-07-24T04:09:54;16.50;99.90
36002;DHT22;22070;50.922;5.430;2022-07-24T04:12:20;16.60;99.90
36002;DHT22;22070;50.922;5.430;2022-07-24T04:14:45;16.60;99.90
36002;DHT22;22070;50.922;5.430;2022-07-24T04:17:11;16.60;99.90
36002;DHT22;22070;50.922;5.430;2022-07-24T04:19:37;16.50;99.90
36002;DHT22;22070;50.922;5.430;2022-07-24T04:22:02;16.50;99.90
36002;DHT22;22070;50.922;5.430;2022-07-24T04:24:28;16.50;99.90
36002;DHT22;22070;50.922;5.430;2022-07-24T04:26:54;16.50;99.90
36002;DHT22;22070;50.922;5.430;2022-07-24T04:29:19;16.50;99.90
36002;DHT22;22070;50.922;5.430;2022-07-24T04:31:45;16.40;99.90
36002;DHT22;22070;50.922;5.430;2022-07-24T04:34:11;16.50;99.90
36002;DHT22;22070;50.922;5.430;2022-07-24T04:36:36;16.50;99.90
36002;DHT22;22070;50.922;5.430;2022-07-24T04:39:02;16.60;99.90
36002;DHT22;22070;50.922;5.430;2022-07-24T04:41:28;16.60;99.90
36002;DHT22;22070;50.922;5.430;2022-07-24T04:43:55;16.70;99.90
36002;DHT22;22070;50.922;5.430;2022-07-24T04:46:20;16.70;99.90
36002;DHT22;22070;50.922;5.430;2022-07-24T04:48:46;16.80;99.90
36002;DHT22;22070;50.922;5.430;2022-07-24T04:51:12;16.90;99.90
36002;DHT22;22070;50.922;5.430;2022-07-24T04:53:38;17.00;99.90
36002;DHT22;22070;50.922;5.430;2022-07-24T04:56:04;17.10;99.90
36002;DHT22;22070;50.922;5.430;2022-07-24T04:58:30;17.20;99.90
36002;DHT22;22070;50.922;5.430;2022-07-24T05:00:56;17.30;99.90
36002;DHT22;22070;50.922;5.430;2022-07-24T05:03:21;17.30;99.90
36002;DHT22;22070;50.922;5.430;2022-07-24T05:05:47;17.20;99.90
36002;DHT22;22070;50.922;5.430;2022-07-24T05:08:12;17.30;99.90
36002;DHT22;22070;50.922;5.430;2022-07-24T05:10:38;17.50;99.90
36002;DHT22;22070;50.922;5.430;2022-07-24T05:13:04;17.60;99.90
36002;DHT22;22070;50.922;5.430;2022-07-24T05:15:30;17.50;99.90
36002;DHT22;22070;50.922;5.430;2022-07-24T05:17:55;17.50;99.90
36002;DHT22;22070;50.922;5.430;2022-07-24T05:20:21;17.70;99.90
36002;DHT22;22070;50.922;5.430;2022-07-24T05:22:47;17.70;99.90
36002;DHT22;22070;50.922;5.430;2022-07-24T05:25:13;17.80;99.90
36002;DHT22;22070;50.922;5.430;2022-07-24T05:27:39;17.90;99.90
36002;DHT22;22070;50.922;5.430;2022-07-24T05:30:05;17.90;99.90
36002;DHT22;22070;50.922;5.430;2022-07-24T05:32:31;17.90;99.90
36002;DHT22;22070;50.922;5.430;2022-07-24T05:34:57;18.00;99.90
36002;DHT22;22070;50.922;5.430;2022-07-24T05:37:23;18.00;99.90
36002;DHT22;22070;50.922;5.430;2022-07-24T05:39:48;18.00;99.90
36002;DHT22;22070;50.922;5.430;2022-07-24T05:42:14;18.20;99.90
36002;DHT22;22070;50.922;5.430;2022-07-24T05:44:40;18.20;99.90
36002;DHT22;22070;50.922;5.430;2022-07-24T05:47:05;18.30;99.90
36002;DHT22;22070;50.922;5.430;2022-07-24T05:49:31;18.40;99.90
36002;DHT22;22070;50.922;5.430;2022-07-24T05:51:57;18.50;99.90
36002;DHT22;22070;50.922;5.430;2022-07-24T05:54:22;18.60;99.90
36002;DHT22;22070;50.922;5.430;2022-07-24T05:56:48;18.60;99.90
36002;DHT22;22070;50.922;5.430;2022-07-24T05:59:14;18.70;99.90
36002;DHT22;22070;50.922;5.430;2022-07-24T06:01:40;18.80;99.90
36002;DHT22;22070;50.922;5.430;2022-07-24T06:04:06;18.90;99.90
36002;DHT22;22070;50.922;5.430;2022-07-24T06:06:31;19.00;99.90
36002;DHT22;22070;50.922;5.430;2022-07-24T06:08:57;19.10;99.90
36002;DHT22;22070;50.922;5.430;2022-07-24T06:11:23;19.10;99.90
36002;DHT22;22070;50.922;5.430;2022-07-24T06:13:49;19.10;99.90
36002;DHT22;22070;50.922;5.430;2022-07-24T06:16:14;19.20;99.90
36002;DHT22;22070;50.922;5.430;2022-07-24T06:18:40;19.30;99.90
36002;DHT22;22070;50.922;5.430;2022-07-24T06:21:06;19.40;99.90
36002;DHT22;22070;50.922;5.430;2022-07-24T06:23:32;19.50;99.90
36002;DHT22;22070;50.922;5.430;2022-07-24T06:25:58;19.60;99.90
36002;DHT22;22070;50.922;5.430;2022-07-24T06:28:23;19.70;99.90
36002;DHT22;22070;50.922;5.430;2022-07-24T06:30:49;19.70;99.90
36002;DHT22;22070;50.922;5.430;2022-07-24T06:33:15;19.70;99.90
36002;DHT22;22070;50.922;5.430;2022-07-24T06:35:40;19.80;99.90
36002;DHT22;22070;50.922;5.430;2022-07-24T06:38:06;19.90;99.90
36002;DHT22;22070;50.922;5.430;2022-07-24T06:40:32;20.00;99.90
36002;DHT22;22070;50.922;5.430;2022-07-24T06:42:59;20.00;99.90
36002;DHT22;22070;50.922;5.430;2022-07-24T06:45:25;20.10;99.90
36002;DHT22;22070;50.922;5.430;2022-07-24T06:47:50;20.30;99.90
36002;DHT22;22070;50.922;5.430;2022-07-24T06:50:16;20.30;99.90
36002;DHT22;22070;50.922;5.430;2022-07-24T06:52:42;20.40;99.90
36002;DHT22;22070;50.922;5.430;2022-07-24T06:55:08;20.40;99.90
36002;DHT22;22070;50.922;5.430;2022-07-24T06:57:34;20.50;99.90
36002;DHT22;22070;50.922;5.430;2022-07-24T07:00:00;20.50;99.90
36002;DHT22;22070;50.922;5.430;2022-07-24T07:02:26;20.70;99.90
36002;DHT22;22070;50.922;5.430;2022-07-24T07:04:51;20.60;99.90
36002;DHT22;22070;50.922;5.430;2022-07-24T07:07:17;20.60;99.90
36002;DHT22;22070;50.922;5.430;2022-07-24T07:09:43;20.80;99.90
36002;DHT22;22070;50.922;5.430;2022-07-24T07:12:09;20.80;99.90
36002;DHT22;22070;50.922;5.430;2022-07-24T07:14:35;20.90;99.90
36002;DHT22;22070;50.922;5.430;2022-07-24T07:17:00;20.90;99.90
36002;DHT22;22070;50.922;5.430;2022-07-24T07:19:26;21.00;99.90
36002;DHT22;22070;50.922;5.430;2022-07-24T07:21:52;21.10;99.90
36002;DHT22;22070;50.922;5.430;2022-07-24T07:24:18;21.20;99.90
36002;DHT22;22070;50.922;5.430;2022-07-24T07:26:43;21.30;99.90
36002;DHT22;22070;50.922;5.430;2022-07-24T07:29:09;21.40;99.90
36002;DHT22;22070;50.922;5.430;2022-07-24T07:31:35;21.50;99.90
36002;DHT22;22070;50.922;5.430;2022-07-24T07:34:00;21.70;99.90
36002;DHT22;22070;50.922;5.430;2022-07-24T07:36:26;21.80;99.90
36002;DHT22;22070;50.922;5.430;2022-07-24T07:38:52;21.80;99.90
36002;DHT22;22070;50.922;5.430;2022-07-24T07:41:18;21.70;99.90
36002;DHT22;22070;50.922;5.430;2022-07-24T07:43:46;21.70;99.90
36002;DHT22;22070;50.922;5.430;2022-07-24T07:46:15;21.80;99.90
36002;DHT22;22070;50.922;5.430;2022-07-24T07:48:41;21.90;99.90
36002;DHT22;22070;50.922;5.430;2022-07-24T07:51:07;22.00;99.90
36002;DHT22;22070;50.922;5.430;2022-07-24T07:53:33;21.90;99.90
36002;DHT22;22070;50.922;5.430;2022-07-24T07:55:58;22.10;99.90
36002;DHT22;22070;50.922;5.430;2022-07-24T07:58:24;22.20;99.90
36002;DHT22;22070;50.922;5.430;2022-07-24T08:00:51;22.30;99.90
36002;DHT22;22070;50.922;5.430;2022-07-24T08:03:17;22.30;99.90
36002;DHT22;22070;50.922;5.430;2022-07-24T08:05:43;22.40;99.90
36002;DHT22;22070;50.922;5.430;2022-07-24T08:08:08;22.50;99.90
36002;DHT22;22070;50.922;5.430;2022-07-24T08:10:34;22.60;99.90
36002;DHT22;22070;50.922;5.430;2022-07-24T08:13:00;22.70;99.90
36002;DHT22;22070;50.922;5.430;2022-07-24T08:15:25;22.80;99.90
36002;DHT22;22070;50.922;5.430;2022-07-24T08:18:00;22.80;99.90
36002;DHT22;22070;50.922;5.430;2022-07-24T08:20:26;22.80;99.90
36002;DHT22;22070;50.922;5.430;2022-07-24T08:22:52;22.90;99.90
36002;DHT22;22070;50.922;5.430;2022-07-24T08:25:18;22.90;99.90
36002;DHT22;22070;50.922;5.430;2022-07-24T08:27:44;23.10;99.90
36002;DHT22;22070;50.922;5.430;2022-07-24T08:30:10;23.30;99.90
36002;DHT22;22070;50.922;5.430;2022-07-24T08:32:36;23.40;99.90
36002;DHT22;22070;50.922;5.430;2022-07-24T08:35:04;23.40;99.90
36002;DHT22;22070;50.922;5.430;2022-07-24T08:37:29;23.50;99.90
36002;DHT22;22070;50.922;5.430;2022-07-24T08:39:55;23.40;99.90
36002;DHT22;22070;50.922;5.430;2022-07-24T08:42:22;23.50;99.90
36002;DHT22;22070;50.922;5.430;2022-07-24T08:44:48;23.70;99.90
36002;DHT22;22070;50.922;5.430;2022-07-24T08:47:15;23.80;99.90
36002;DHT22;22070;50.922;5.430;2022-07-24T08:49:41;23.80;99.90
36002;DHT22;22070;50.922;5.430;2022-07-24T08:52:09;23.90;99.90
36002;DHT22;22070;50.922;5.430;2022-07-24T08:54:36;23.90;99.90
36002;DHT22;22070;50.922;5.430;2022-07-24T08:57:04;24.00;99.90
36002;DHT22;22070;50.922;5.430;2022-07-24T08:59:30;24.10;99.90
36002;DHT22;22070;50.922;5.430;2022-07-24T09:01:56;24.00;99.90
36002;DHT22;22070;50.922;5.430;2022-07-24T09:04:33;24.30;99.90
36002;DHT22;22070;50.922;5.430;2022-07-24T09:06:59;24.50;99.90
36002;DHT22;22070;50.922;5.430;2022-07-24T09:09:25;24.60;99.90
36002;DHT22;22070;50.922;5.430;2022-07-24T09:12:13;24.80;99.90
36002;DHT22;22070;50.922;5.430;2022-07-24T09:14:42;25.10;99.90
36002;DHT22;22070;50.922;5.430;2022-07-24T09:17:11;25.20;99.90
36002;DHT22;22070;50.922;5.430;2022-07-24T09:19:48;25.30;99.90
36002;DHT22;22070;50.922;5.430;2022-07-24T09:22:24;25.40;99.90
36002;DHT22;22070;50.922;5.430;2022-07-24T09:27:40;25.60;99.90
36002;DHT22;22070;50.922;5.430;2022-07-24T09:30:07;25.30;99.90
36002;DHT22;22070;50.922;5.430;2022-07-24T09:32:33;25.20;99.90
36002;DHT22;22070;50.922;5.430;2022-07-24T09:34:59;25.40;99.90
36002;DHT22;22070;50.922;5.430;2022-07-24T09:37:26;25.50;99.90
36002;DHT22;22070;50.922;5.430;2022-07-24T09:39:53;25.70;99.90
36002;DHT22;22070;50.922;5.430;2022-07-24T09:42:30;25.70;99.90
36002;DHT22;22070;50.922;5.430;2022-07-24T09:44:58;25.60;99.90
36002;DHT22;22070;50.922;5.430;2022-07-24T09:47:24;25.80;99.90
36002;DHT22;22070;50.922;5.430;2022-07-24T09:49:50;25.90;99.90
36002;DHT22;22070;50.922;5.430;2022-07-24T09:52:21;26.00;99.90
36002;DHT22;22070;50.922;5.430;2022-07-24T09:54:50;26.10;99.90
36002;DHT22;22070;50.922;5.430;2022-07-24T09:57:20;26.10;99.90
36002;DHT22;22070;50.922;5.430;2022-07-24T10:02:28;26.10;99.90
36002;DHT22;22070;50.922;5.430;2022-07-24T10:04:56;26.00;99.90
36002;DHT22;22070;50.922;5.430;2022-07-24T10:07:23;26.30;99.90
36002;DHT22;22070;50.922;5.430;2022-07-24T10:09:51;26.40;99.90
36002;DHT22;22070;50.922;5.430;2022-07-24T10:12:27;26.20;99.90
36002;DHT22;22070;50.922;5.430;2022-07-24T10:14:55;26.10;99.90
36002;DHT22;22070;50.922;5.430;2022-07-24T10:17:40;26.20;99.90
36002;DHT22;22070;50.922;5.430;2022-07-24T10:20:10;26.40;99.90
36002;DHT22;22070;50.922;5.430;2022-07-24T10:23:03;26.50;99.90
36002;DHT22;22070;50.922;5.430;2022-07-24T10:25:30;26.20;99.90
36002;DHT22;22070;50.922;5.430;2022-07-24T10:28:02;26.20;99.90
36002;DHT22;22070;50.922;5.430;2022-07-24T10:30:28;26.40;99.90
36002;DHT22;22070;50.922;5.430;2022-07-24T10:32:54;26.50;99.90
36002;DHT22;22070;50.922;5.430;2022-07-24T10:35:24;26.40;99.90
36002;DHT22;22070;50.922;5.430;2022-07-24T10:38:02;26.60;99.90
36002;DHT22;22070;50.922;5.430;2022-07-24T10:40:49;26.70;99.90
36002;DHT22;22070;50.922;5.430;2022-07-24T10:43:20;26.80;99.90
36002;DHT22;22070;50.922;5.430;2022-07-24T10:56:21;27.10;99.90
36002;DHT22;22070;50.922;5.430;2022-07-24T10:59:08;27.20;99.90
36002;DHT22;22070;50.922;5.430;2022-07-24T11:01:48;27.40;99.90
36002;DHT22;22070;50.922;5.430;2022-07-24T11:07:15;27.40;99.90
36002;DHT22;22070;50.922;5.430;2022-07-24T11:10:13;27.50;99.90
36002;DHT22;22070;50.922;5.430;2022-07-24T11:12:42;27.80;99.90
36002;DHT22;22070;50.922;5.430;2022-07-24T11:15:08;28.20;99.90
36002;DHT22;22070;50.922;5.430;2022-07-24T11:17:52;28.30;99.90
36002;DHT22;22070;50.922;5.430;2022-07-24T11:20:20;28.50;99.90
36002;DHT22;22070;50.922;5.430;2022-07-24T11:22:51;28.40;99.90
36002;DHT22;22070;50.922;5.430;2022-07-24T11:25:24;28.30;99.90
36002;DHT22;22070;50.922;5.430;2022-07-24T11:27:57;28.40;99.90
36002;DHT22;22070;50.922;5.430;2022-07-24T11:30:29;28.70;99.90
36002;DHT22;22070;50.922;5.430;2022-07-24T11:32:56;29.00;99.90
36002;DHT22;22070;50.922;5.430;2022-07-24T11:35:31;29.10;99.90
36002;DHT22;22070;50.922;5.430;2022-07-24T11:37:59;29.30;99.90
36002;DHT22;22070;50.922;5.430;2022-07-24T11:40:25;29.10;99.90
36002;DHT22;22070;50.922;5.430;2022-07-24T11:42:58;28.80;99.90
36002;DHT22;22070;50.922;5.430;2022-07-24T11:45:24;29.20;99.90
36002;DHT22;22070;50.922;5.430;2022-07-24T11:47:49;29.30;99.90
36002;DHT22;22070;50.922;5.430;2022-07-24T11:50:19;29.40;99.90
36002;DHT22;22070;50.922;5.430;2022-07-24T11:52:45;29.30;99.90
36002;DHT22;22070;50.922;5.430;2022-07-24T11:55:13;30.10;99.90
36002;DHT22;22070;50.922;5.430;2022-07-24T11:57:41;30.80;99.90
36002;DHT22;22070;50.922;5.430;2022-07-24T12:00:10;30.50;99.90
36002;DHT22;22070;50.922;5.430;2022-07-24T12:02:37;30.40;99.90
36002;DHT22;22070;50.922;5.430;2022-07-24T12:05:07;30.10;99.90
36002;DHT22;22070;50.922;5.430;2022-07-24T12:07:33;30.40;99.90
36002;DHT22;22070;50.922;5.430;2022-07-24T12:10:03;30.90;99.90
36002;DHT22;22070;50.922;5.430;2022-07-24T12:12:31;31.70;99.90
36002;DHT22;22070;50.922;5.430;2022-07-24T12:15:09;31.10;99.90
36002;DHT22;22070;50.922;5.430;2022-07-24T12:17:59;30.50;99.90
36002;DHT22;22070;50.922;5.430;2022-07-24T12:20:34;30.70;99.90
36002;DHT22;22070;50.922;5.430;2022-07-24T12:23:01;31.50;99.90
36002;DHT22;22070;50.922;5.430;2022-07-24T12:25:28;32.20;99.90
36002;DHT22;22070;50.922;5.430;2022-07-24T12:30:42;32.20;99.90
36002;DHT22;22070;50.922;5.430;2022-07-24T12:36:05;31.20;99.90
36002;DHT22;22070;50.922;5.430;2022-07-24T12:38:41;31.70;99.90
36002;DHT22;22070;50.922;5.430;2022-07-24T12:41:13;32.20;99.90
36002;DHT22;22070;50.922;5.430;2022-07-24T12:46:23;32.40;99.90
36002;DHT22;22070;50.922;5.430;2022-07-24T12:49:03;32.60;99.90
36002;DHT22;22070;50.922;5.430;2022-07-24T12:51:52;32.60;99.90
36002;DHT22;22070;50.922;5.430;2022-07-24T12:54:26;32.00;99.90
36002;DHT22;22070;50.922;5.430;2022-07-24T12:56:55;32.30;99.90
36002;DHT22;22070;50.922;5.430;2022-07-24T12:59:31;33.00;99.90
36002;DHT22;22070;50.922;5.430;2022-07-24T13:02:02;33.60;99.90
36002;DHT22;22070;50.922;5.430;2022-07-24T13:04:28;34.30;99.90
36002;DHT22;22070;50.922;5.430;2022-07-24T13:06:56;34.00;99.90
36002;DHT22;22070;50.922;5.430;2022-07-24T13:09:22;34.50;99.90
36002;DHT22;22070;50.922;5.430;2022-07-24T13:11:50;35.20;99.70
36002;DHT22;22070;50.922;5.430;2022-07-24T13:14:18;35.20;98.80
36002;DHT22;22070;50.922;5.430;2022-07-24T13:16:45;35.00;98.30
36002;DHT22;22070;50.922;5.430;2022-07-24T13:19:12;35.20;98.50
36002;DHT22;22070;50.922;5.430;2022-07-24T13:21:39;35.00;98.60
36002;DHT22;22070;50.922;5.430;2022-07-24T13:24:06;35.60;98.10
36002;DHT22;22070;50.922;5.430;2022-07-24T13:26:32;35.50;97.50
36002;DHT22;22070;50.922;5.430;2022-07-24T13:28:57;35.10;97.70
36002;DHT22;22070;50.922;5.430;2022-07-24T13:31:24;34.90;97.60
36002;DHT22;22070;50.922;5.430;2022-07-24T13:33:50;34.80;97.80
36002;DHT22;22070;50.922;5.430;2022-07-24T13:36:16;35.00;97.70
36002;DHT22;22070;50.922;5.430;2022-07-24T13:38:41;34.70;97.60
36002;DHT22;22070;50.922;5.430;2022-07-24T13:41:07;34.90;97.50
36002;DHT22;22070;50.922;5.430;2022-07-24T13:43:33;35.50;97.30
36002;DHT22;22070;50.922;5.430;2022-07-24T13:45:58;35.30;96.60
36002;DHT22;22070;50.922;5.430;2022-07-24T13:48:24;34.80;96.90
36002;DHT22;22070;50.922;5.430;2022-07-24T13:50:50;34.90;96.50
36002;DHT22;22070;50.922;5.430;2022-07-24T13:53:15;35.20;96.90
36002;DHT22;22070;50.922;5.430;2022-07-24T13:55:41;35.00;96.60
36002;DHT22;22070;50.922;5.430;2022-07-24T13:58:06;34.70;96.60
36002;DHT22;22070;50.922;5.430;2022-07-24T14:00:32;35.00;96.50
36002;DHT22;22070;50.922;5.430;2022-07-24T14:02:58;35.00;96.40
36002;DHT22;22070;50.922;5.430;2022-07-24T14:05:27;35.60;96.10
36002;DHT22;22070;50.922;5.430;2022-07-24T14:07:53;36.00;95.40
36002;DHT22;22070;50.922;5.430;2022-07-24T14:10:20;36.00;95.60
36002;DHT22;22070;50.922;5.430;2022-07-24T14:12:46;35.60;95.60
36002;DHT22;22070;50.922;5.430;2022-07-24T14:15:13;35.10;95.40
36002;DHT22;22070;50.922;5.430;2022-07-24T14:17:40;35.20;95.40
36002;DHT22;22070;50.922;5.430;2022-07-24T14:20:07;35.60;94.90
36002;DHT22;22070;50.922;5.430;2022-07-24T14:22:34;35.60;94.90
36002;DHT22;22070;50.922;5.430;2022-07-24T14:25:00;35.80;94.90
36002;DHT22;22070;50.922;5.430;2022-07-24T14:27:26;36.20;95.10
36002;DHT22;22070;50.922;5.430;2022-07-24T14:29:53;36.40;95.00
36002;DHT22;22070;50.922;5.430;2022-07-24T14:32:18;36.70;95.10
36002;DHT22;22070;50.922;5.430;2022-07-24T14:34:44;37.20;94.90
36002;DHT22;22070;50.922;5.430;2022-07-24T14:37:10;36.60;93.70
36002;DHT22;22070;50.922;5.430;2022-07-24T14:39:35;36.10;93.80
36002;DHT22;22070;50.922;5.430;2022-07-24T14:42:01;35.90;93.90
36002;DHT22;22070;50.922;5.430;2022-07-24T14:44:26;35.90;93.60
36002;DHT22;22070;50.922;5.430;2022-07-24T14:46:52;36.30;93.50
36002;DHT22;22070;50.922;5.430;2022-07-24T14:49:17;36.50;93.10
36002;DHT22;22070;50.922;5.430;2022-07-24T14:51:43;36.80;93.80
36002;DHT22;22070;50.922;5.430;2022-07-24T14:54:09;37.10;93.30
36002;DHT22;22070;50.922;5.430;2022-07-24T14:56:35;36.30;93.40
36002;DHT22;22070;50.922;5.430;2022-07-24T14:59:01;35.70;93.60
36002;DHT22;22070;50.922;5.430;2022-07-24T15:01:27;36.10;93.40
36002;DHT22;22070;50.922;5.430;2022-07-24T15:03:52;35.90;92.60
36002;DHT22;22070;50.922;5.430;2022-07-24T15:06:19;36.00;92.70
36002;DHT22;22070;50.922;5.430;2022-07-24T15:08:45;36.40;93.20
36002;DHT22;22070;50.922;5.430;2022-07-24T15:11:11;37.00;92.50
36002;DHT22;22070;50.922;5.430;2022-07-24T15:13:36;37.30;92.20
36002;DHT22;22070;50.922;5.430;2022-07-24T15:16:04;37.50;92.20
36002;DHT22;22070;50.922;5.430;2022-07-24T15:18:30;37.80;91.90
36002;DHT22;22070;50.922;5.430;2022-07-24T15:20:55;37.40;91.70
36002;DHT22;22070;50.922;5.430;2022-07-24T15:23:21;37.70;91.60
36002;DHT22;22070;50.922;5.430;2022-07-24T15:25:47;37.80;91.40
36002;DHT22;22070;50.922;5.430;2022-07-24T15:28:12;38.20;90.80
36002;DHT22;22070;50.922;5.430;2022-07-24T15:30:39;38.00;91.10
36002;DHT22;22070;50.922;5.430;2022-07-24T15:33:05;37.80;90.50
36002;DHT22;22070;50.922;5.430;2022-07-24T15:35:31;37.40;90.80
36002;DHT22;22070;50.922;5.430;2022-07-24T15:37:57;37.20;91.40
36002;DHT22;22070;50.922;5.430;2022-07-24T15:40:23;37.40;91.50
36002;DHT22;22070;50.922;5.430;2022-07-24T15:42:53;37.30;91.00
36002;DHT22;22070;50.922;5.430;2022-07-24T15:45:18;37.20;90.80
36002;DHT22;22070;50.922;5.430;2022-07-24T15:47:44;37.30;90.70
36002;DHT22;22070;50.922;5.430;2022-07-24T15:50:10;37.70;90.80
36002;DHT22;22070;50.922;5.430;2022-07-24T15:52:35;37.80;90.20
36002;DHT22;22070;50.922;5.430;2022-07-24T15:55:01;37.50;90.40
36002;DHT22;22070;50.922;5.430;2022-07-24T15:57:27;37.40;90.60